Flight Track Log - Related Links

Times and Time Zones

All times are in EDT time to prevent confusion due to time zone crossing. See the USC108 flight status page for this flight to view local times or setup timezone preferences in your user account.

Time Position Orientation Groundspeed Altitude Reporting Facility
EDT Latitude Longitude Course Direction KTS MPH feet Rate Location/Type
Wed 11:11:39 PM 39.8058 -82.9419 225° Southwest 132 152 1,000  Level Indianapolis Center
Wed 11:12:34 PM 39.7828 -82.9719 225° Southwest 130 150 2,300 1,186 Climbing Indianapolis Center
Wed 11:13:05 PM 39.7731 -82.9872 230° Southwest 127 146 2,700 889 Climbing Indianapolis Center
Wed 11:13:28 PM 39.7614 -83.0075 233° Southwest 166 191 3,100 787 Climbing Indianapolis Center
Wed 11:14:06 PM 39.7492 -83.0319 237° Southwest 138 159 3,500 787 Climbing Indianapolis Center
Wed 11:14:29 PM 39.7369 -83.0589 239° Southwest 194 223 3,900 787 Climbing Indianapolis Center
Wed 11:15:07 PM 39.7264 -83.0847 242° Southwest 155 178 4,300 689 Climbing Indianapolis Center
Wed 11:15:30 PM 39.7147 -83.1078 237° Southwest 161 185 4,600 689 Climbing Indianapolis Center
Wed 11:16:08 PM 39.7008 -83.1350 236° Southwest 163 188 5,000 716 Climbing Indianapolis Center
Wed 11:16:37 PM 39.6883 -83.1589 236° Southwest 164 189 5,400 677 Climbing Indianapolis Center
Wed 11:17:10 PM 39.6744 -83.1839 234° Southwest 164 189 5,700 590 Climbing Indianapolis Center
Wed 11:17:38 PM 39.6611 -83.2156 241° Southwest 165 190 6,000 393 Climbing Indianapolis Center
Wed 11:18:11 PM 39.6492 -83.2358 233° Southwest 167 192 6,100  Climbing Indianapolis Center
Wed 11:18:32 PM 39.6394 -83.2589 241° Southwest 174 200 6,000 -98 Descending Indianapolis Center
Wed 11:19:12 PM 39.6200 -83.2931 234° Southwest 181 208 6,000 76 Level Indianapolis Center
Wed 11:19:51 PM 39.5978 -83.3406 239° Southwest 199 229 6,100  Climbing Indianapolis Center
Wed 11:20:13 PM 39.5900 -83.3528 230° Southwest 193 222 6,000 -122 Descending Indianapolis Center
Wed 11:20:40 PM 39.5758 -83.3839 239° Southwest 194 223 6,000  Level Indianapolis Center
Wed 11:21:14 PM 39.5631 -83.4139 241° Southwest 193 222 6,000  Level Indianapolis Center
Wed 11:21:35 PM 39.5531 -83.4408 244° Southwest 191 220 6,000  Level Indianapolis Center
Wed 11:22:16 PM 39.5375 -83.4756 240° Southwest 192 221 6,000  Level Indianapolis Center
Wed 11:22:35 PM 39.5256 -83.5022 240° Southwest 195 224 6,000  Level Indianapolis Center
Wed 11:23:17 PM 39.5092 -83.5369 239° Southwest 194 223 6,000  Level Indianapolis Center
Wed 11:23:48 PM 39.4931 -83.5742 241° Southwest 200 230 6,000  Level Indianapolis Center
Wed 11:24:18 PM 39.4817 -83.5975 238° Southwest 194 223 6,000  Level Indianapolis Center
Wed 11:25:19 PM 39.4553 -83.6592 241° Southwest 194 223 6,000 -49 Level Indianapolis Center
Wed 11:26:20 PM 39.4283 -83.7208 241° Southwest 194 223 5,900 -49 Descending Indianapolis Center
Wed 11:27:22 PM 39.4003 -83.7806 239° Southwest 194 223 5,900  Level Indianapolis Center
Wed 11:28:23 PM 39.3714 -83.8406 238° Southwest 194 223 5,900  Level Indianapolis Center
Wed 11:29:24 PM 39.3364 -83.9103 237° Southwest 196 226 5,900  Level Indianapolis Center
Wed 11:30:25 PM 39.3058 -83.9689 236° Southwest 195 224 5,900  Level Indianapolis Center
Wed 11:31:26 PM 39.2750 -84.0244 234° Southwest 192 221 5,900  Level Indianapolis Center
Wed 11:32:27 PM 39.2419 -84.0797 232° Southwest 193 222 5,900  Level Indianapolis Center
Wed 11:33:28 PM 39.2083 -84.1336 231° Southwest 193 222 5,900  Level Indianapolis Center
Wed 11:34:29 PM 39.1758 -84.1883 233° Southwest 192 221 5,900  Level Indianapolis Center
Wed 11:35:30 PM 39.1481 -84.2456 238° Southwest 188 216 5,900  Level Indianapolis Center
Wed 11:36:31 PM 39.1211 -84.3044 239° Southwest 189 217 5,900  Level Indianapolis Center
Wed 11:37:32 PM 39.0931 -84.3650 239° Southwest 194 223 5,900  Level Indianapolis Center
Wed 11:37:48 PM 39.0833 -84.3833 236° Southwest 192 221 5,900  Level Cincinnati TRACON
Wed 11:38:48 PM 39.0500 -84.4333 229° Southwest 190 219 5,900  Level Cincinnati TRACON
Wed 11:39:48 PM 39.0167 -84.5000 237° Southwest 189 217 5,900  Level Cincinnati TRACON
Wed 11:40:48 PM 39.0000 -84.5500 247° West 191 220 5,900  Level Cincinnati TRACON
Wed 11:41:48 PM 38.9667 -84.6000 229° Southwest 191 220 5,900  Level Cincinnati TRACON
Wed 11:42:48 PM 38.9333 -84.6500 229° Southwest 192 221 5,900  Level Cincinnati TRACON
Wed 11:43:48 PM 38.9000 -84.7167 237° Southwest 190 219 5,900  Level Cincinnati TRACON
Wed 11:44:49 PM 38.8833 -84.7667 247° West 190 219 5,900  Level Cincinnati TRACON
Wed 11:45:40 PM 38.8492 -84.8175 229° Southwest 190 219 5,900  Level Indianapolis Center
Wed 11:46:41 PM 38.8189 -84.8733 235° Southwest 188 216 5,900  Level Indianapolis Center
Wed 11:47:41 PM 38.7897 -84.9319 237° Southwest 192 221 5,900  Level Indianapolis Center
Wed 11:48:42 PM 38.7592 -84.9872 235° Southwest 189 217 5,900 49 Level Indianapolis Center
Wed 11:49:43 PM 38.7300 -85.0447 237° Southwest 191 220 6,000  Climbing Indianapolis Center
Wed 11:50:44 PM 38.6983 -85.1011 234° Southwest 193 222 5,900 -49 Descending Indianapolis Center
Wed 11:51:45 PM 38.6686 -85.1569 236° Southwest 189 217 5,900  Level Indianapolis Center
Wed 11:52:46 PM 38.6375 -85.2139 235° Southwest 192 221 5,900 49 Level Indianapolis Center
Wed 11:53:47 PM 38.6081 -85.2686 235° Southwest 192 221 6,000  Climbing Indianapolis Center
Wed 11:54:47 PM 38.5781 -85.3247 236° Southwest 193 222 5,900 -50 Descending Indianapolis Center
Wed 11:55:48 PM 38.5483 -85.3819 236° Southwest 192 221 5,900 -295 Level Indianapolis Center
Wed 11:56:49 PM 38.5144 -85.4389 233° Southwest 196 226 5,300 -639 Descending Indianapolis Center
Wed 11:57:50 PM 38.4856 -85.5044 241° Southwest 208 239 4,600 -590 Descending Indianapolis Center
Wed 11:58:51 PM 38.4547 -85.5794 242° Southwest 206 237 4,100 -492 Descending Indianapolis Center

Login

Don't have an account? Register now (free) for customized features, flight alerts, and more!